Amissville, Virginia
Current Conditions -  °F | °C
As of 1:35 PM on Thursday 30 Oct 2014 (Local Time) from KCJR Reporting Station
Scattered Clouds Scattered Clouds  
Wind Chill: 61°   Ceiling: Unl
Heat Index: 61°   Visibility: 10mi
Dew Point: 36°   Wind: 5mph
Humidity: 39%   Direction: 350°N
Pressure: 30.05"   Gusts: NA
Location:  38.67°N, 77.99°W
Report Text: KCJR 301735Z AUTO 35004KT 10SM SCT050 16/02 A3005 RMK AO2
Loading
Personal Weather Stations






























Interactive Weather Map New forecast layout! Learn more

10-Day Weather Forecast

Advertisements
Track Severe Weather on mobile